< Typhoon 197519 1975 Season Typhoon 197521 >
Typhoon 197520 (JUNE)
General InformationTrack Information on Google Maps || Disaster Info.ResourceGoogle EarthGE AnimationAtom FeedGeoJSON
Detalied Best Track (Time Zone = UTC)
Year Month Day Hour Lat. Long. Pressure (hPa) Wind (kt) Class Image Chart
1975 11 16 06 6.7 143.1 996 0 2 -- Chart
1975 11 16 12 6.5 142.8 994 0 2 -- Chart
1975 11 16 18 6.5 142.8 990 0 9 -- Chart
1975 11 17 00 6.7 142.5 980 0 9 -- Chart
1975 11 17 06 7.0 142.4 980 0 9 -- Chart
1975 11 17 12 7.1 142.4 975 0 9 -- Chart
1975 11 17 18 7.4 142.4 970 0 9 -- Chart
1975 11 18 00 7.9 142.4 965 0 9 -- Chart
1975 11 18 06 8.7 142.4 965 0 9 -- Chart
1975 11 18 12 9.7 142.4 955 0 9 -- Chart
1975 11 18 18 10.6 142.1 940 0 9 -- Chart
1975 11 19 00 11.4 141.8 905 0 9 -- Chart
1975 11 19 06 12.2 141.5 885 0 9 -- Chart
1975 11 19 12 13.2 140.9 875 0 9 -- Chart
1975 11 19 18 13.9 140.3 885 0 9 -- Chart
1975 11 20 00 14.4 139.5 895 0 9 -- Chart
1975 11 20 06 14.7 138.6 900 0 9 -- Chart
1975 11 20 12 15.3 138.1 900 0 9 -- Chart
1975 11 20 18 16.2 137.2 900 0 9 -- Chart
1975 11 21 00 17.0 136.6 900 0 9 -- Chart
1975 11 21 06 17.7 136.0 900 0 9 -- Chart
1975 11 21 12 18.4 135.4 915 0 9 -- Chart
1975 11 21 18 19.4 135.0 920 0 9 -- Chart
1975 11 22 00 20.5 134.8 925 0 9 -- Chart
1975 11 22 06 21.6 135.1 925 0 9 -- Chart
1975 11 22 12 22.7 135.2 930 0 9 -- Chart
1975 11 22 18 24.3 136.0 940 0 9 -- Chart
1975 11 23 00 25.7 137.5 945 0 9 -- Chart
1975 11 23 06 27.4 139.6 950 0 9 -- Chart
1975 11 23 12 30.8 143.8 960 0 9 -- Chart
1975 11 23 18 34.2 148.3 960 0 9 -- Chart
1975 11 24 00 37.4 154.0 970 0 9 -- Chart
1975 11 24 06 42.0 162.1 976 0 6 -- Chart
1975 11 24 12 46.5 169.5 976 0 6 -- Chart
1975 11 24 18 53.0 175.0 976 0 6 -- Chart
1975 11 25 00 59.0 173.3 964 0 6 -- Chart
1975 11 25 06 62.0 172.0 960 0 6 -- Chart
1975 11 25 12 63.0 175.0 960 0 6 -- Chart
1975 11 25 18 65.5 174.0 960 0 6 -- Chart
Japan Meteorological Agency Best Track Data | Correction Date : 1989-06-01
< Typhoon 197519 1975 Season Typhoon 197521 >

Help